• Join FlightAware (Why Join?)
  • Login
  • US Flag 
06:46PM EST


 

Airport Tracker/Info


-or-


 

Live Flight TrackerFlight Track Log ✈ N137TK ✈ 26-Aug-2013 ✈ KARW - KMFV

Flight Track Log - Related Links

Times and Time Zones

All times are in EDT time to prevent confusion due to time zone crossing. See the N137TK flight status page for this flight to view local times or setup timezone preferences in your user account.

Time Position Orientation Groundspeed Altitude Reporting Facility
EDT Latitude Longitude Course Direction KTS MPH feet Rate Location/Type
09:41AM 32.4933 -80.5403 41° Northeast 167 192 5,700  Level Jacksonville Center
09:42AM 32.5281 -80.4975 46° Northeast 170 196 7,100 1,440 Climbing Jacksonville Center
09:43AM 32.5669 -80.4547 43° Northeast 192 221 8,600 1,500 Climbing Jacksonville Center
09:44AM 32.6014 -80.3994 54° Northeast 203 234 10,100 1,440 Climbing Jacksonville Center
09:45AM 32.6627 -80.3115 45° Northeast  Level FlightAware Approximate
09:45AM 32.6400 -80.3542 45° Northeast 203 234 11,600  Level Jacksonville Center
09:46AM 32.6808 -80.3036 46° Northeast 203 234 12,900 1,260 Climbing Jacksonville Center
09:47AM 32.7214 -80.2531 46° Northeast 197 227 14,100 1,200 Climbing Jacksonville Center
09:48AM 32.7622 -80.2025 46° Northeast 197 227 15,300 1,200 Climbing Jacksonville Center
09:49AM 32.8028 -80.1542 45° Northeast 197 227 16,500 1,200 Climbing Jacksonville Center
09:50AM 32.8475 -80.0986 46° Northeast 197 227 17,800 1,020 Climbing Jacksonville Center
09:51AM 32.8861 -80.0478 48° Northeast 197 227 18,600 900 Climbing Jacksonville Center
09:52AM 32.9289 -80.0019 42° Northeast 197 227 19,700 960 Climbing Jacksonville Center
09:53AM 32.9717 -79.9608 39° Northeast 197 227 20,600 900 Climbing Jacksonville Center
09:54AM 33.0167 -79.9175 39° Northeast 197 227 21,500 900 Climbing Jacksonville Center
09:55AM 33.0617 -79.8761 38° Northeast 203 234 22,400 720 Climbing Jacksonville Center
09:56AM 33.1064 -79.8325 39° Northeast 203 234 23,000 240 Climbing Jacksonville Center
09:57AM 33.1575 -79.7836 39° Northeast 208 239 23,000  Level Jacksonville Center
09:58AM 33.2106 -79.7322 39° Northeast 227 261 23,000  Level Jacksonville Center
09:59AM 33.2653 -79.6781 40° Northeast 242 278 23,000  Level Jacksonville Center
10:00AM 33.3206 -79.6264 38° Northeast 248 285 23,000  Level Jacksonville Center
10:01AM 33.3753 -79.5722 40° Northeast 248 285 23,000  Level Jacksonville Center
10:02AM 33.4303 -79.5178 40° Northeast 248 285 23,000  Level Jacksonville Center
10:03AM 33.4872 -79.4633 39° Northeast 253 291 23,000  Level Jacksonville Center
10:04AM 33.5442 -79.4089 39° Northeast 253 291 23,000  Level Jacksonville Center
10:05AM 33.5989 -79.3542 40° Northeast 253 291 23,000  Level Jacksonville Center
10:06AM 33.6536 -79.2972 41° Northeast 253 291 23,000  Level Jacksonville Center
10:07AM 33.7086 -79.2425 40° Northeast 253 291 23,000  Level Jacksonville Center
10:08AM 33.7572 -79.2006 36° Northeast 248 285 23,000  Level Jacksonville Center
10:09AM 33.8100 -79.1433 42° Northeast 253 291 23,000  Level Jacksonville Center
10:10AM 33.8667 -79.0883 39° Northeast 253 291 23,000  Level Jacksonville Center
10:11AM 33.9214 -79.0361 38° Northeast 253 291 23,000  Level Jacksonville Center
10:12AM 33.9781 -78.9808 39° Northeast 253 291 23,000  Level Jacksonville Center
10:14AM 34.0853 -78.8717 40° Northeast 251 289 23,000  Level Washington Center
10:15AM 34.1408 -78.8161 40° Northeast 251 289 23,000  Level Washington Center
10:16AM 34.1967 -78.7606 39° Northeast 256 295 23,000  Level Washington Center
10:17AM 34.2522 -78.7050 40° Northeast 256 295 23,000  Level Washington Center
10:18AM 34.3058 -78.6517 39° Northeast 256 295 23,000  Level Washington Center
10:19AM 34.3594 -78.6008 38° Northeast 256 295 23,000  Level Washington Center
10:20AM 34.4150 -78.5450 40° Northeast 250 288 23,000  Level Washington Center
10:21AM 34.4792 -78.4792 40° Northeast 244 281 23,000  Level Washington Center
10:22AM 34.5306 -78.4281 39° Northeast 244 281 23,000  Level Washington Center
10:23AM 34.5861 -78.3719 40° Northeast 249 287 23,000  Level Washington Center
10:24AM 34.6417 -78.3133 41° Northeast 239 275 23,000  Level Washington Center
10:25AM 34.6950 -78.2594 40° Northeast 239 275 23,000  Level Washington Center
10:26AM 34.7461 -78.2081 40° Northeast 239 275 23,000  Level Washington Center
10:27AM 34.8017 -78.1517 40° Northeast 239 275 23,000  Level Washington Center
10:28AM 34.8444 -78.1000 45° Northeast 239 275 23,000  Level Washington Center
10:29AM 34.9000 -78.0458 39° Northeast 239 275 23,000  Level Washington Center
10:30AM 34.9406 -78.0014 42° Northeast 239 275 23,000  Level Washington Center
10:31AM 35.0022 -77.9375 40° Northeast 239 275 23,000  Level Washington Center
10:32AM 35.0556 -77.8831 40° Northeast 239 275 23,000  Level Washington Center
10:33AM 35.1086 -77.8289 40° Northeast 239 275 23,000  Level Washington Center
10:34AM 35.1639 -77.7719 40° Northeast 239 275 23,000  Level Washington Center
10:35AM 35.2150 -77.7175 41° Northeast 239 275 23,000  Level Washington Center
10:36AM 35.2700 -77.6656 38° Northeast 239 275 23,000  Level Washington Center
10:37AM 35.3233 -77.6083 41° Northeast 239 275 23,000  Level Washington Center
10:38AM 35.3783 -77.5511 40° Northeast 239 275 23,000  Level Washington Center
10:39AM 35.4356 -77.5014 35° Northeast 239 275 23,000  Level Washington Center
10:40AM 35.4967 -77.4594 29° Northeast 245 282 23,000  Level Washington Center
10:41AM 35.5619 -77.4228 25° Northeast 245 282 23,000  Level Washington Center
10:42AM 35.6294 -77.3733 31° Northeast 250 288 23,000  Level Washington Center
10:43AM 35.6867 -77.3233 35° Northeast 250 288 23,000  Level Washington Center
10:44AM 35.7417 -77.2708 38° Northeast 250 288 23,000  Level Washington Center
10:45AM 35.7986 -77.2208 35° Northeast 250 288 23,000  Level Washington Center
10:46AM 35.8597 -77.1681 35° Northeast 250 288 23,000  Level Washington Center
10:47AM 35.9128 -77.1153 39° Northeast 250 288 23,000  Level Washington Center
10:48AM 35.9675 -77.0600 39° Northeast 250 288 23,000  Level Washington Center
10:49AM 36.0244 -77.0122 34° Northeast 255 293 23,000  Level Washington Center
10:50AM 36.0814 -76.9592 37° Northeast 249 287 23,000  Level Washington Center
10:51AM 36.1194 -76.9264 35° Northeast 254 292 23,000  Level Washington Center
10:52AM 36.1764 -76.8786 34° Northeast 256 295 23,000  Level Washington Center
10:53AM 36.2375 -76.8203 38° Northeast 255 293 23,000  Level Washington Center
10:54AM 36.2942 -76.7644 38° Northeast 255 293 23,000  Level Washington Center
10:55AM 36.3511 -76.7111 37° Northeast 256 295 23,000  Level Washington Center
10:56AM 36.4100 -76.6606 35° Northeast 256 295 23,000  Level Washington Center
10:57AM 36.4711 -76.5994 39° Northeast 258 297 23,000  Level Washington Center
10:58AM 36.5361 -76.5356 38° Northeast 254 292 23,000  Level Washington Center
10:59AM 36.5931 -76.4844 36° Northeast 254 292 23,000  Level Washington Center
11:00AM 36.6433 -76.4383 36° Northeast 252 290 23,000  Level Washington Center
11:01AM 36.7064 -76.3794 37° Northeast 253 291 23,000 -720 Level Washington Center
11:02AM 36.7608 -76.3308 36° Northeast 274 315 21,600 -1,620 Descending Washington Center
11:03AM 36.8300 -76.2639 38° Northeast 300 345 19,900 -1,740 Descending Washington Center
11:04AM 36.8992 -76.2047 34° Northeast 306 352 18,200 -1,560 Descending Washington Center
11:05AM 36.9725 -76.1614 25° Northeast 301 346 16,800 -1,560 Descending Washington Center
11:06AM 37.0519 -76.1203 22° Northeast 296 341 15,000 -1,740 Descending Washington Center
11:07AM 37.1250 -76.0817 23° Northeast 289 333 13,300 -1,620 Descending Washington Center
11:08AM 37.1919 -76.0428 25° Northeast 283 326 11,900 -1,560 Descending Washington Center
11:09AM 37.2653 -75.9989 25° Northeast 284 327 10,400 -1,560 Descending Washington Center
11:11AM 37.3581 -75.9335 24° Northeast  Level FlightAware Approximate
11:18AM 37.6333 -75.7500 38° Northeast  Level FlightAware Approximate
11:19AM 37.6469 -75.7611 38° Northeast  Level Estimated
11:20AM 37.6469 -75.7611 38° Northeast  Level Estimated